Urb Myrlena, Puerto Rico
Current Conditions -  °F | °C
As of 11:56 PM on Tuesday 25 Nov 2014 (Local Time) from TJSJ Reporting Station
Few Clouds Few Clouds  
Wind Chill: 77°   Ceiling: Unl
Heat Index: 78°   Visibility: 10mi
Dew Point: 72°   Wind: 0mph
Humidity: 84%   Direction: NA
Pressure: 30.02"   Gusts: NA
Location:  18.2361°N, 66.0369°W
Report Text: TJSJ 260356Z 00000KT 10SM FEW030 25/22 A3002 RMK AO2 SLP163 T02500222 402940250
Loading
Personal Weather Stations






























Interactive Weather Map New forecast layout! Learn more

10-Day Weather Forecast

Advertisements
Track Severe Weather on mobile